KEUL

Caldwell Industrial Airport

Caldwell, Idaho, USA
METAR KEUL 170656Z AUTO 25007KT 10SM CLR M03/M06 A3024 RMK AO2 SLP264 T10331061 400391078 FZRANO
Observed Flight Rules
Dec-17 @ 06:56 UTC (an hour ago) Visual Flight Rules
Wind Visibility Clouds
250° at 7 knots 10 miles
  • Clear skies
Temperatures Readings
Current -3°C / 27°F
Dewpoint -6°C / 21°F
Humidity 80%
Altimeter 30.24" Hg
Pressure 1026.4 hPa
Elevation 740
METAR KEUL 170656Z AUTO 25007KT 10SM CLR M03/M06 A3024 RMK AO2 SLP264 T10331061 400391078 FZRANO
Observed Flight Rules
Dec-17 @ 06:56 UTC
(an hour ago)
VFR
Wind Visibility
250° at 7 knots 10 miles
Clouds
  • Clear skies
Temperature Dewpoint
-3°C / 27°F -6°C / 21°F
Humidity Altimeter Pressure
80% 30.24" Hg 1026.4 hPa